Toyo Eagle — H3LY — position and weather

sailwx.info

Track history (hours):
 
Tides and Currents Weather Stations Pressure Air Temp Water Temp Dewpoint Dewpoint Depression Visibility Wind Speed Wind Dir Waves Ship Positions

Toyo Eagle

Last reported at 2016-Jul-21 07:28 UTC. Time now 2016-Jul-30 03:34 UTC.
Position N 01°18' E 104°07'.
Warning: this ship's position is 8 days out of date.

Length 108 m; draft 5.4 m.

Type: Cargo ship. MMSI: 355327000.

Date/timePositionNaut miles runAvg speedWind from/ knotsBaromVisibWave heightAir tempDewpointWater temp
2016-Jul-21 07:28N 01°18' E 104°07'8 8.9
2016-Jul-21 06:33N 01°23' E 104°01'8 7.5
2016-Jul-21 05:33N 01°26' E 103°54'0 0.0
2016-Jul-21 02:05N 01°26' E 103°54'0 0.0
2016-Jul-20 20:29N 01°26' E 103°54'0 0.0
2016-Jul-20 09:17N 01°26' E 103°54'0 0.0
2016-Jul-20 03:19N 01°26' E 103°54'3 3.9
2016-Jul-20 02:29N 01°24' E 103°57'9 9.4
2016-Jul-20 01:33N 01°20' E 104°05'4 4.0
2016-Jul-20 00:32N 01°16' E 104°07'6 6.0
2016-Jul-19 23:33N 01°14' E 104°01'8 8.3
2016-Jul-19 22:33N 01°15' E 103°53'1 0.7
2016-Jul-19 21:33N 01°16' E 103°52'0 0.0
2016-Jul-19 20:30N 01°16' E 103°52'0 0.1
2016-Jul-19 19:30N 01°16' E 103°52'0 0.0
2016-Jul-19 18:30N 01°16' E 103°52'0 0.0
2016-Jul-19 17:30N 01°16' E 103°52'0 0.0
2016-Jul-19 16:18N 01°16' E 103°52'0 0.0
2016-Jul-19 15:33N 01°16' E 103°52'0 0.0
2016-Jul-19 14:30N 01°16' E 103°52'0 0.1
2016-Jul-19 13:30N 01°16' E 103°52'0 0.0
2016-Jul-19 12:33N 01°16' E 103°52'0 0.0
2016-Jul-19 11:30N 01°16' E 103°52'0 0.1
2016-Jul-19 10:33N 01°16' E 103°52'0 0.1
2016-Jul-19 09:33N 01°16' E 103°52'4 4.2
2016-Jul-19 08:33N 01°15' E 103°56'7 7.3
2016-Jul-19 07:33N 01°16' E 104°04'  
2016-Jul-13 08:33N 24°37' E 119°03'  
Track history (hours):
 
Tides and Currents Weather Stations Pressure Air Temp Water Temp Dewpoint Dewpoint Depression Visibility Wind Speed Wind Dir Waves Ship Positions

Toyo Eagle

Last reported at 2016-Jul-21 07:28 UTC. Time now 2016-Jul-30 03:34 UTC.
Position N 01°18' E 104°07'.
Warning: this ship's position is 8 days out of date.

Length 108 m; draft 5.4 m.

Type: Cargo ship. MMSI: 355327000.

Date/timePositionNaut miles runAvg speedWind from/ knotsBaromVisibWave heightAir tempDewpointWater temp
2016-Jul-21 07:28N 01°18' E 104°07'8 8.9
2016-Jul-21 06:33N 01°23' E 104°01'8 7.5
2016-Jul-21 05:33N 01°26' E 103°54'0 0.0
2016-Jul-21 02:05N 01°26' E 103°54'0 0.0
2016-Jul-20 20:29N 01°26' E 103°54'0 0.0
2016-Jul-20 09:17N 01°26' E 103°54'0 0.0
2016-Jul-20 03:19N 01°26' E 103°54'3 3.9
2016-Jul-20 02:29N 01°24' E 103°57'9 9.4
2016-Jul-20 01:33N 01°20' E 104°05'4 4.0
2016-Jul-20 00:32N 01°16' E 104°07'6 6.0
2016-Jul-19 23:33N 01°14' E 104°01'8 8.3
2016-Jul-19 22:33N 01°15' E 103°53'1 0.7
2016-Jul-19 21:33N 01°16' E 103°52'0 0.0
2016-Jul-19 20:30N 01°16' E 103°52'0 0.1
2016-Jul-19 19:30N 01°16' E 103°52'0 0.0
2016-Jul-19 18:30N 01°16' E 103°52'0 0.0
2016-Jul-19 17:30N 01°16' E 103°52'0 0.0
2016-Jul-19 16:18N 01°16' E 103°52'0 0.0
2016-Jul-19 15:33N 01°16' E 103°52'0 0.0
2016-Jul-19 14:30N 01°16' E 103°52'0 0.1
2016-Jul-19 13:30N 01°16' E 103°52'0 0.0
2016-Jul-19 12:33N 01°16' E 103°52'0 0.0
2016-Jul-19 11:30N 01°16' E 103°52'0 0.1
2016-Jul-19 10:33N 01°16' E 103°52'0 0.1
2016-Jul-19 09:33N 01°16' E 103°52'4 4.2
2016-Jul-19 08:33N 01°15' E 103°56'7 7.3
2016-Jul-19 07:33N 01°16' E 104°04'  
2016-Jul-13 08:33N 24°37' E 119°03'  

Dump ship's entire track history